sensor_id;sensor_type;location;lat;lon;timestamp;pressure;altitude;pressure_sealevel;temperature;humidity
55077;BME280;40971;44.702;11.030;2022-08-21T00:00:47;100980.59;;;19.48;100.00
55077;BME280;40971;44.702;11.030;2022-08-21T00:03:14;100967.56;;;19.66;100.00
55077;BME280;40971;44.702;11.030;2022-08-21T00:05:43;100951.06;;;19.63;100.00
55077;BME280;40971;44.702;11.030;2022-08-21T00:08:09;100971.06;;;19.76;100.00
55077;BME280;40971;44.702;11.030;2022-08-21T00:10:35;100903.03;;;19.46;100.00
55077;BME280;40971;44.702;11.030;2022-08-21T00:13:04;100890.06;;;19.34;100.00
55077;BME280;40971;44.702;11.030;2022-08-21T00:15:31;100962.84;;;19.70;100.00
55077;BME280;40971;44.702;11.030;2022-08-21T00:17:57;100914.97;;;19.31;100.00
55077;BME280;40971;44.702;11.030;2022-08-21T00:20:24;100952.16;;;19.50;100.00
55077;BME280;40971;44.702;11.030;2022-08-21T00:22:49;100838.56;;;18.77;100.00
55077;BME280;40971;44.702;11.030;2022-08-21T00:25:17;100947.63;;;19.01;100.00
55077;BME280;40971;44.702;11.030;2022-08-21T00:27:42;100892.84;;;18.50;100.00
55077;BME280;40971;44.702;11.030;2022-08-21T00:30:10;100954.09;;;18.87;100.00
55077;BME280;40971;44.702;11.030;2022-08-21T00:32:38;100949.66;;;18.98;100.00
55077;BME280;40971;44.702;11.030;2022-08-21T00:35:09;100959.06;;;19.11;100.00
55077;BME280;40971;44.702;11.030;2022-08-21T00:37:37;100953.78;;;19.11;100.00
55077;BME280;40971;44.702;11.030;2022-08-21T00:40:03;100916.00;;;19.09;100.00
55077;BME280;40971;44.702;11.030;2022-08-21T00:42:29;100953.63;;;19.34;100.00
55077;BME280;40971;44.702;11.030;2022-08-21T00:44:55;100956.28;;;19.34;100.00
55077;BME280;40971;44.702;11.030;2022-08-21T00:47:21;100888.75;;;18.88;100.00
55077;BME280;40971;44.702;11.030;2022-08-21T00:49:47;100861.09;;;18.71;100.00
55077;BME280;40971;44.702;11.030;2022-08-21T00:52:21;100953.00;;;19.20;100.00
55077;BME280;40971;44.702;11.030;2022-08-21T00:54:48;100894.69;;;19.01;100.00
55077;BME280;40971;44.702;11.030;2022-08-21T00:57:20;100922.22;;;19.29;100.00
55077;BME280;40971;44.702;11.030;2022-08-21T00:59:49;100939.56;;;19.43;100.00
55077;BME280;40971;44.702;11.030;2022-08-21T01:02:17;100942.91;;;19.35;100.00
55077;BME280;40971;44.702;11.030;2022-08-21T01:04:43;100933.84;;;19.38;100.00
55077;BME280;40971;44.702;11.030;2022-08-21T01:07:10;100858.91;;;18.76;100.00
55077;BME280;40971;44.702;11.030;2022-08-21T01:09:36;100931.41;;;18.94;100.00
55077;BME280;40971;44.702;11.030;2022-08-21T01:12:02;100935.72;;;18.96;100.00
55077;BME280;40971;44.702;11.030;2022-08-21T01:14:29;100939.94;;;18.98;100.00
55077;BME280;40971;44.702;11.030;2022-08-21T01:16:56;100918.50;;;19.01;100.00
55077;BME280;40971;44.702;11.030;2022-08-21T01:19:23;100824.16;;;18.39;100.00
55077;BME280;40971;44.702;11.030;2022-08-21T01:21:49;100942.56;;;19.19;100.00
55077;BME280;40971;44.702;11.030;2022-08-21T01:24:15;100866.31;;;18.82;100.00
55077;BME280;40971;44.702;11.030;2022-08-21T01:26:42;100917.59;;;19.21;100.00
55077;BME280;40971;44.702;11.030;2022-08-21T01:31:48;100935.72;;;19.57;100.00
55077;BME280;40971;44.702;11.030;2022-08-21T01:34:14;100870.38;;;19.27;100.00
55077;BME280;40971;44.702;11.030;2022-08-21T01:36:42;100936.59;;;19.67;100.00
55077;BME280;40971;44.702;11.030;2022-08-21T01:39:08;100931.84;;;19.61;100.00
55077;BME280;40971;44.702;11.030;2022-08-21T01:41:34;100870.38;;;19.17;100.00
55077;BME280;40971;44.702;11.030;2022-08-21T01:44:00;100817.09;;;18.70;100.00
55077;BME280;40971;44.702;11.030;2022-08-21T01:46:25;100946.94;;;19.39;100.00
55077;BME280;40971;44.702;11.030;2022-08-21T01:48:51;100908.66;;;19.13;100.00
55077;BME280;40971;44.702;11.030;2022-08-21T01:51:16;100934.91;;;19.26;100.00
55077;BME280;40971;44.702;11.030;2022-08-21T01:53:42;100930.72;;;19.23;100.00
55077;BME280;40971;44.702;11.030;2022-08-21T01:56:11;100928.34;;;19.30;100.00
55077;BME280;40971;44.702;11.030;2022-08-21T01:58:37;100916.38;;;19.26;100.00
55077;BME280;40971;44.702;11.030;2022-08-21T02:01:03;100935.09;;;19.34;100.00
55077;BME280;40971;44.702;11.030;2022-08-21T02:03:29;100875.97;;;18.93;100.00
55077;BME280;40971;44.702;11.030;2022-08-21T02:05:55;100931.13;;;19.18;100.00
55077;BME280;40971;44.702;11.030;2022-08-21T02:08:21;100928.47;;;19.18;100.00
55077;BME280;40971;44.702;11.030;2022-08-21T02:10:50;100857.75;;;18.69;100.00
55077;BME280;40971;44.702;11.030;2022-08-21T02:13:17;100902.84;;;18.88;100.00
55077;BME280;40971;44.702;11.030;2022-08-21T02:15:43;100900.47;;;18.95;100.00
55077;BME280;40971;44.702;11.030;2022-08-21T02:18:09;100903.47;;;19.02;100.00
55077;BME280;40971;44.702;11.030;2022-08-21T02:20:38;100912.03;;;19.24;100.00
55077;BME280;40971;44.702;11.030;2022-08-21T02:23:05;100911.78;;;19.28;100.00
55077;BME280;40971;44.702;11.030;2022-08-21T02:25:32;100906.19;;;19.31;100.00
55077;BME280;40971;44.702;11.030;2022-08-21T02:27:58;100918.78;;;19.38;100.00
55077;BME280;40971;44.702;11.030;2022-08-21T02:30:31;100900.78;;;19.32;100.00
55077;BME280;40971;44.702;11.030;2022-08-21T02:32:57;100909.03;;;19.39;100.00
55077;BME280;40971;44.702;11.030;2022-08-21T02:35:23;100907.06;;;19.41;100.00
55077;BME280;40971;44.702;11.030;2022-08-21T02:37:56;100904.00;;;19.36;100.00
55077;BME280;40971;44.702;11.030;2022-08-21T02:40:25;100932.69;;;19.31;100.00
55077;BME280;40971;44.702;11.030;2022-08-21T02:42:51;100913.44;;;19.29;100.00
55077;BME280;40971;44.702;11.030;2022-08-21T02:45:17;100795.38;;;18.46;100.00
55077;BME280;40971;44.702;11.030;2022-08-21T02:47:51;100915.50;;;19.15;100.00
55077;BME280;40971;44.702;11.030;2022-08-21T02:50:23;100903.19;;;19.05;100.00
55077;BME280;40971;44.702;11.030;2022-08-21T02:52:49;100916.44;;;19.14;100.00
55077;BME280;40971;44.702;11.030;2022-08-21T02:55:15;100919.00;;;19.16;100.00
55077;BME280;40971;44.702;11.030;2022-08-21T02:57:41;100853.31;;;18.70;100.00
55077;BME280;40971;44.702;11.030;2022-08-21T03:00:07;100792.25;;;18.10;100.00
55077;BME280;40971;44.702;11.030;2022-08-21T03:02:33;100830.91;;;18.11;100.00
55077;BME280;40971;44.702;11.030;2022-08-21T03:04:59;100916.13;;;18.56;100.00
55077;BME280;40971;44.702;11.030;2022-08-21T03:07:25;100925.00;;;18.67;100.00
55077;BME280;40971;44.702;11.030;2022-08-21T03:09:51;100928.22;;;18.70;100.00
55077;BME280;40971;44.702;11.030;2022-08-21T03:12:17;100922.25;;;18.78;100.00
55077;BME280;40971;44.702;11.030;2022-08-21T03:14:42;100850.44;;;18.61;100.00
55077;BME280;40971;44.702;11.030;2022-08-21T03:17:08;100908.66;;;19.13;100.00
55077;BME280;40971;44.702;11.030;2022-08-21T03:19:33;100917.91;;;19.28;100.00
55077;BME280;40971;44.702;11.030;2022-08-21T03:21:58;100923.34;;;19.27;100.00
55077;BME280;40971;44.702;11.030;2022-08-21T03:24:24;100842.75;;;18.79;100.00
55077;BME280;40971;44.702;11.030;2022-08-21T03:26:49;100918.59;;;19.20;100.00
55077;BME280;40971;44.702;11.030;2022-08-21T03:29:15;100901.38;;;19.05;100.00
55077;BME280;40971;44.702;11.030;2022-08-21T03:31:40;100908.00;;;19.20;100.00
55077;BME280;40971;44.702;11.030;2022-08-21T03:34:06;100910.38;;;19.23;100.00
55077;BME280;40971;44.702;11.030;2022-08-21T03:36:32;100914.63;;;19.05;100.00
55077;BME280;40971;44.702;11.030;2022-08-21T03:38:57;100847.09;;;18.59;100.00
55077;BME280;40971;44.702;11.030;2022-08-21T03:41:23;100888.66;;;18.69;100.00
55077;BME280;40971;44.702;11.030;2022-08-21T03:43:48;100841.25;;;18.35;100.00
55077;BME280;40971;44.702;11.030;2022-08-21T03:46:14;100840.34;;;18.25;100.00
55077;BME280;40971;44.702;11.030;2022-08-21T03:48:39;100899.28;;;18.57;100.00
55077;BME280;40971;44.702;11.030;2022-08-21T03:51:05;100870.97;;;18.27;100.00
55077;BME280;40971;44.702;11.030;2022-08-21T03:53:32;100861.44;;;18.15;100.00
55077;BME280;40971;44.702;11.030;2022-08-21T03:55:58;100905.00;;;18.21;100.00
55077;BME280;40971;44.702;11.030;2022-08-21T03:58:25;100902.63;;;18.18;100.00
55077;BME280;40971;44.702;11.030;2022-08-21T04:00:53;100898.66;;;18.12;100.00
55077;BME280;40971;44.702;11.030;2022-08-21T04:03:19;100909.84;;;18.16;100.00
55077;BME280;40971;44.702;11.030;2022-08-21T04:05:45;100910.41;;;17.98;100.00
55077;BME280;40971;44.702;11.030;2022-08-21T04:08:11;100906.56;;;17.91;100.00
55077;BME280;40971;44.702;11.030;2022-08-21T04:10:39;100843.50;;;17.55;100.00
55077;BME280;40971;44.702;11.030;2022-08-21T04:13:06;100872.59;;;17.87;100.00
55077;BME280;40971;44.702;11.030;2022-08-21T04:15:32;100916.13;;;18.03;100.00
55077;BME280;40971;44.702;11.030;2022-08-21T04:17:57;100848.78;;;17.55;100.00
55077;BME280;40971;44.702;11.030;2022-08-21T04:20:24;100846.38;;;17.52;100.00
55077;BME280;40971;44.702;11.030;2022-08-21T04:22:50;100916.81;;;17.85;100.00
55077;BME280;40971;44.702;11.030;2022-08-21T04:25:18;100863.66;;;17.56;100.00
55077;BME280;40971;44.702;11.030;2022-08-21T04:27:43;100921.72;;;17.89;100.00
55077;BME280;40971;44.702;11.030;2022-08-21T04:30:10;100917.28;;;17.79;100.00
55077;BME280;40971;44.702;11.030;2022-08-21T04:32:37;100803.66;;;17.03;100.00
55077;BME280;40971;44.702;11.030;2022-08-21T04:35:08;100918.75;;;17.83;100.00
55077;BME280;40971;44.702;11.030;2022-08-21T04:37:35;100856.72;;;17.43;100.00
55077;BME280;40971;44.702;11.030;2022-08-21T04:40:00;100920.44;;;17.72;100.00
55077;BME280;40971;44.702;11.030;2022-08-21T04:42:27;100921.44;;;17.92;100.00
55077;BME280;40971;44.702;11.030;2022-08-21T04:44:53;100915.69;;;17.98;100.00
55077;BME280;40971;44.702;11.030;2022-08-21T04:47:20;100927.75;;;18.12;100.00
55077;BME280;40971;44.702;11.030;2022-08-21T04:49:46;100923.66;;;18.19;100.00
55077;BME280;40971;44.702;11.030;2022-08-21T04:52:15;100940.66;;;18.26;100.00
55077;BME280;40971;44.702;11.030;2022-08-21T04:54:43;100944.38;;;18.35;100.00
55077;BME280;40971;44.702;11.030;2022-08-21T04:57:09;100874.38;;;17.97;100.00
55077;BME280;40971;44.702;11.030;2022-08-21T04:59:39;100811.41;;;17.59;100.00
55077;BME280;40971;44.702;11.030;2022-08-21T05:02:07;100946.19;;;18.34;100.00
55077;BME280;40971;44.702;11.030;2022-08-21T05:04:36;100876.91;;;17.88;100.00
55077;BME280;40971;44.702;11.030;2022-08-21T05:07:06;100925.66;;;18.27;100.00
55077;BME280;40971;44.702;11.030;2022-08-21T05:09:34;100940.31;;;18.52;100.00
55077;BME280;40971;44.702;11.030;2022-08-21T05:12:02;100937.38;;;18.66;100.00
55077;BME280;40971;44.702;11.030;2022-08-21T05:14:28;100940.91;;;18.76;100.00
55077;BME280;40971;44.702;11.030;2022-08-21T05:16:53;100869.84;;;18.30;100.00
55077;BME280;40971;44.702;11.030;2022-08-21T05:19:19;100944.28;;;18.78;100.00
55077;BME280;40971;44.702;11.030;2022-08-21T05:21:45;100942.25;;;18.91;100.00
55077;BME280;40971;44.702;11.030;2022-08-21T05:24:12;100948.72;;;18.99;100.00
55077;BME280;40971;44.702;11.030;2022-08-21T05:26:38;100945.28;;;19.08;100.00
55077;BME280;40971;44.702;11.030;2022-08-21T05:29:04;100945.06;;;19.20;100.00
55077;BME280;40971;44.702;11.030;2022-08-21T05:31:30;100946.91;;;19.30;100.00
55077;BME280;40971;44.702;11.030;2022-08-21T05:33:56;100877.06;;;18.90;100.00
55077;BME280;40971;44.702;11.030;2022-08-21T05:36:22;100947.38;;;19.44;100.00
55077;BME280;40971;44.702;11.030;2022-08-21T05:38:47;100955.69;;;19.61;100.00
55077;BME280;40971;44.702;11.030;2022-08-21T05:41:13;100955.16;;;19.67;100.00
55077;BME280;40971;44.702;11.030;2022-08-21T05:43:38;100958.50;;;19.78;100.00
55077;BME280;40971;44.702;11.030;2022-08-21T05:46:04;100958.97;;;19.83;100.00
55077;BME280;40971;44.702;11.030;2022-08-21T05:48:31;100961.88;;;19.90;100.00
55077;BME280;40971;44.702;11.030;2022-08-21T05:50:57;100955.75;;;19.90;100.00
55077;BME280;40971;44.702;11.030;2022-08-21T05:53:24;100943.75;;;19.95;100.00
55077;BME280;40971;44.702;11.030;2022-08-21T05:55:51;100863.63;;;19.53;100.00
55077;BME280;40971;44.702;11.030;2022-08-21T05:58:19;100959.28;;;20.19;100.00
55077;BME280;40971;44.702;11.030;2022-08-21T06:00:47;100955.91;;;20.27;100.00
55077;BME280;40971;44.702;11.030;2022-08-21T06:03:19;100962.91;;;20.37;100.00
55077;BME280;40971;44.702;11.030;2022-08-21T06:05:49;100941.41;;;20.40;100.00
55077;BME280;40971;44.702;11.030;2022-08-21T06:08:18;100899.28;;;20.18;100.00
55077;BME280;40971;44.702;11.030;2022-08-21T06:10:50;100960.38;;;20.65;100.00
55077;BME280;40971;44.702;11.030;2022-08-21T06:13:18;100940.00;;;20.65;100.00
55077;BME280;40971;44.702;11.030;2022-08-21T06:15:45;100960.38;;;20.84;100.00
55077;BME280;40971;44.702;11.030;2022-08-21T06:18:11;100951.81;;;20.90;100.00
55077;BME280;40971;44.702;11.030;2022-08-21T06:20:37;100896.16;;;20.61;99.95
55077;BME280;40971;44.702;11.030;2022-08-21T06:23:03;100968.09;;;21.15;100.00
55077;BME280;40971;44.702;11.030;2022-08-21T06:25:29;100951.19;;;21.16;100.00
55077;BME280;40971;44.702;11.030;2022-08-21T06:28:10;100954.69;;;21.26;94.67
55077;BME280;40971;44.702;11.030;2022-08-21T06:30:37;100955.72;;;21.43;94.54
55077;BME280;40971;44.702;11.030;2022-08-21T06:33:03;100953.28;;;21.49;94.71
55077;BME280;40971;44.702;11.030;2022-08-21T06:35:29;100887.84;;;21.21;93.70
55077;BME280;40971;44.702;11.030;2022-08-21T06:37:55;100886.69;;;21.33;92.46
55077;BME280;40971;44.702;11.030;2022-08-21T06:40:21;100951.31;;;21.79;92.91
55077;BME280;40971;44.702;11.030;2022-08-21T06:42:46;100948.47;;;21.90;94.48
55077;BME280;40971;44.702;11.030;2022-08-21T06:45:12;100942.16;;;21.91;94.05
55077;BME280;40971;44.702;11.030;2022-08-21T06:47:38;100948.56;;;22.16;93.36
55077;BME280;40971;44.702;11.030;2022-08-21T06:50:04;100947.19;;;22.30;90.34
55077;BME280;40971;44.702;11.030;2022-08-21T06:52:32;100948.69;;;22.50;92.71
55077;BME280;40971;44.702;11.030;2022-08-21T06:54:58;100943.50;;;22.66;89.10
55077;BME280;40971;44.702;11.030;2022-08-21T06:57:23;100961.00;;;22.87;87.74
55077;BME280;40971;44.702;11.030;2022-08-21T06:59:50;100959.13;;;23.13;89.20
55077;BME280;40971;44.702;11.030;2022-08-21T07:02:16;100959.13;;;23.39;85.95
55077;BME280;40971;44.702;11.030;2022-08-21T07:04:41;100962.88;;;23.62;84.31
55077;BME280;40971;44.702;11.030;2022-08-21T07:07:07;100906.69;;;23.56;84.17
55077;BME280;40971;44.702;11.030;2022-08-21T07:09:32;100937.13;;;23.95;79.52
55077;BME280;40971;44.702;11.030;2022-08-21T07:11:58;100968.22;;;24.21;78.89
55077;BME280;40971;44.702;11.030;2022-08-21T07:14:24;100956.72;;;24.45;76.31
55077;BME280;40971;44.702;11.030;2022-08-21T07:16:50;100940.69;;;24.61;75.23
55077;BME280;40971;44.702;11.030;2022-08-21T07:19:16;100933.31;;;24.79;73.06
55077;BME280;40971;44.702;11.030;2022-08-21T07:21:42;100901.75;;;24.83;72.80
55077;BME280;40971;44.702;11.030;2022-08-21T07:24:07;100952.88;;;25.43;71.08
55077;BME280;40971;44.702;11.030;2022-08-21T07:26:33;100950.84;;;25.54;70.90
55077;BME280;40971;44.702;11.030;2022-08-21T07:28:58;100960.53;;;25.86;69.37
55077;BME280;40971;44.702;11.030;2022-08-21T07:31:25;100947.88;;;25.79;69.56
55077;BME280;40971;44.702;11.030;2022-08-21T07:33:51;100952.47;;;26.17;66.77
55077;BME280;40971;44.702;11.030;2022-08-21T07:36:17;100945.97;;;26.42;66.86
55077;BME280;40971;44.702;11.030;2022-08-21T07:38:43;100950.09;;;26.82;63.58
55077;BME280;40971;44.702;11.030;2022-08-21T07:41:25;100893.28;;;26.72;62.18
55077;BME280;40971;44.702;11.030;2022-08-21T07:43:56;100926.63;;;26.99;61.23
55077;BME280;40971;44.702;11.030;2022-08-21T07:46:25;100952.00;;;27.11;59.17
55077;BME280;40971;44.702;11.030;2022-08-21T07:48:52;100951.44;;;27.16;60.33
55077;BME280;40971;44.702;11.030;2022-08-21T07:51:19;100952.13;;;26.95;59.09
55077;BME280;40971;44.702;11.030;2022-08-21T07:53:50;100888.81;;;26.79;59.52
55077;BME280;40971;44.702;11.030;2022-08-21T07:56:16;100952.19;;;27.39;60.25
55077;BME280;40971;44.702;11.030;2022-08-21T07:58:42;100953.16;;;27.53;57.88
55077;BME280;40971;44.702;11.030;2022-08-21T08:01:07;100881.31;;;27.34;56.75
55077;BME280;40971;44.702;11.030;2022-08-21T08:03:33;100905.78;;;27.60;57.50
55077;BME280;40971;44.702;11.030;2022-08-21T08:05:59;100858.16;;;27.47;55.63
55077;BME280;40971;44.702;11.030;2022-08-21T08:08:24;100946.81;;;28.11;55.64
55077;BME280;40971;44.702;11.030;2022-08-21T08:10:50;100948.72;;;27.96;56.08
55077;BME280;40971;44.702;11.030;2022-08-21T08:13:17;100941.31;;;28.20;54.93
55077;BME280;40971;44.702;11.030;2022-08-21T08:15:42;100843.53;;;27.65;55.78
55077;BME280;40971;44.702;11.030;2022-08-21T08:18:08;100900.66;;;28.01;56.36
55077;BME280;40971;44.702;11.030;2022-08-21T08:20:33;100944.78;;;28.56;54.36
55077;BME280;40971;44.702;11.030;2022-08-21T08:22:58;100942.06;;;28.84;54.18
55077;BME280;40971;44.702;11.030;2022-08-21T08:25:25;100939.06;;;28.94;53.72
55077;BME280;40971;44.702;11.030;2022-08-21T08:27:51;100943.09;;;29.11;53.05
55077;BME280;40971;44.702;11.030;2022-08-21T08:30:18;100884.69;;;28.70;52.96
55077;BME280;40971;44.702;11.030;2022-08-21T08:32:45;100942.22;;;29.04;53.90
55077;BME280;40971;44.702;11.030;2022-08-21T08:35:11;100890.25;;;28.90;54.88
55077;BME280;40971;44.702;11.030;2022-08-21T08:37:38;100940.66;;;29.57;53.49
55077;BME280;40971;44.702;11.030;2022-08-21T08:40:10;100924.97;;;29.74;51.97
55077;BME280;40971;44.702;11.030;2022-08-21T08:42:36;100864.81;;;29.41;52.43
55077;BME280;40971;44.702;11.030;2022-08-21T08:45:08;100917.69;;;29.68;52.85
55077;BME280;40971;44.702;11.030;2022-08-21T08:47:38;100915.44;;;29.85;52.56
55077;BME280;40971;44.702;11.030;2022-08-21T08:52:48;100921.34;;;30.08;52.40
55077;BME280;40971;44.702;11.030;2022-08-21T08:55:21;100905.16;;;30.08;51.56
55077;BME280;40971;44.702;11.030;2022-08-21T08:57:49;100915.53;;;30.31;52.08
55077;BME280;40971;44.702;11.030;2022-08-21T09:00:19;100921.31;;;30.35;52.09
55077;BME280;40971;44.702;11.030;2022-08-21T09:02:46;100819.59;;;30.17;50.68
55077;BME280;40971;44.702;11.030;2022-08-21T09:05:27;100923.81;;;30.76;50.55
55077;BME280;40971;44.702;11.030;2022-08-21T09:13:19;100858.91;;;30.58;50.40
55077;BME280;40971;44.702;11.030;2022-08-21T09:21:51;100901.03;;;31.36;50.07
55077;BME280;40971;44.702;11.030;2022-08-21T09:24:38;100906.16;;;30.93;46.90
55077;BME280;40971;44.702;11.030;2022-08-21T09:27:09;100915.75;;;30.76;49.34
55077;BME280;40971;44.702;11.030;2022-08-21T09:29:41;100852.44;;;30.92;48.28
55077;BME280;40971;44.702;11.030;2022-08-21T09:37:26;100847.94;;;31.17;46.17
55077;BME280;40971;44.702;11.030;2022-08-21T09:39:54;100891.94;;;31.69;45.09
55077;BME280;40971;44.702;11.030;2022-08-21T09:42:26;100893.00;;;32.24;44.97
55077;BME280;40971;44.702;11.030;2022-08-21T09:45:07;100891.09;;;32.31;43.80
55077;BME280;40971;44.702;11.030;2022-08-21T09:47:35;100884.44;;;32.34;43.89
55077;BME280;40971;44.702;11.030;2022-08-21T09:50:17;100878.88;;;32.22;43.99
55077;BME280;40971;44.702;11.030;2022-08-21T09:52:46;100848.09;;;31.73;43.09
55077;BME280;40971;44.702;11.030;2022-08-21T09:55:46;100880.13;;;32.26;45.60
55077;BME280;40971;44.702;11.030;2022-08-21T09:58:32;100875.41;;;33.20;42.76
55077;BME280;40971;44.702;11.030;2022-08-21T10:01:01;100865.69;;;33.31;42.28
55077;BME280;40971;44.702;11.030;2022-08-21T10:03:27;100811.31;;;32.66;42.89
55077;BME280;40971;44.702;11.030;2022-08-21T10:08:26;100864.97;;;33.05;43.30
55077;BME280;40971;44.702;11.030;2022-08-21T10:11:01;100770.31;;;32.32;42.21
55077;BME280;40971;44.702;11.030;2022-08-21T10:13:54;100869.66;;;32.05;42.47
55077;BME280;40971;44.702;11.030;2022-08-21T10:17:12;100848.09;;;31.35;45.48
55077;BME280;40971;44.702;11.030;2022-08-21T10:22:18;100804.41;;;31.52;44.26
55077;BME280;40971;44.702;11.030;2022-08-21T10:30:19;100846.47;;;32.66;42.70
55077;BME280;40971;44.702;11.030;2022-08-21T10:32:57;100854.28;;;32.92;42.73
55077;BME280;40971;44.702;11.030;2022-08-21T10:35:30;100844.09;;;32.94;39.49
55077;BME280;40971;44.702;11.030;2022-08-21T10:41:11;100840.69;;;32.62;38.96
55077;BME280;40971;44.702;11.030;2022-08-21T10:43:51;100796.75;;;32.30;39.64
55077;BME280;40971;44.702;11.030;2022-08-21T10:48:59;100778.75;;;32.17;38.64
55077;BME280;40971;44.702;11.030;2022-08-21T10:54:11;100767.94;;;32.17;37.48
55077;BME280;40971;44.702;11.030;2022-08-21T10:56:41;100837.38;;;32.78;38.17
55077;BME280;40971;44.702;11.030;2022-08-21T11:02:13;100769.31;;;33.30;35.78
55077;BME280;40971;44.702;11.030;2022-08-21T11:09:47;100820.59;;;33.43;35.05
55077;BME280;40971;44.702;11.030;2022-08-21T11:20:58;100797.56;;;33.04;37.13
55077;BME280;40971;44.702;11.030;2022-08-21T11:23:38;100743.00;;;33.18;35.21
55077;BME280;40971;44.702;11.030;2022-08-21T11:26:13;100798.16;;;33.06;34.36
55077;BME280;40971;44.702;11.030;2022-08-21T11:28:48;100792.91;;;33.53;32.28
55077;BME280;40971;44.702;11.030;2022-08-21T11:33:57;100788.91;;;33.43;33.61
55077;BME280;40971;44.702;11.030;2022-08-21T11:42:24;100731.88;;;32.48;34.53
55077;BME280;40971;44.702;11.030;2022-08-21T11:48:21;100786.72;;;33.64;32.26
55077;BME280;40971;44.702;11.030;2022-08-21T11:50:51;100779.25;;;33.47;33.29
55077;BME280;40971;44.702;11.030;2022-08-21T11:53:24;100739.69;;;33.05;32.70
55077;BME280;40971;44.702;11.030;2022-08-21T11:55:56;100779.66;;;33.63;32.50
55077;BME280;40971;44.702;11.030;2022-08-21T11:58:44;100722.09;;;34.02;33.60
55077;BME280;40971;44.702;11.030;2022-08-21T12:01:16;100736.56;;;34.31;33.00
55077;BME280;40971;44.702;11.030;2022-08-21T12:04:04;100779.66;;;34.56;32.15
55077;BME280;40971;44.702;11.030;2022-08-21T12:06:37;100771.88;;;33.66;31.06
55077;BME280;40971;44.702;11.030;2022-08-21T12:12:12;100772.03;;;34.30;30.54
55077;BME280;40971;44.702;11.030;2022-08-21T12:14:39;100759.91;;;34.44;30.36
55077;BME280;40971;44.702;11.030;2022-08-21T12:17:06;100774.03;;;34.46;30.44
55077;BME280;40971;44.702;11.030;2022-08-21T12:19:32;100757.78;;;33.99;29.56
55077;BME280;40971;44.702;11.030;2022-08-21T12:24:43;100765.78;;;34.41;31.17
55077;BME280;40971;44.702;11.030;2022-08-21T12:27:30;100756.47;;;34.49;31.36
55077;BME280;40971;44.702;11.030;2022-08-21T12:30:21;100755.47;;;34.66;30.56
55077;BME280;40971;44.702;11.030;2022-08-21T12:32:59;100746.75;;;34.64;30.93
55077;BME280;40971;44.702;11.030;2022-08-21T12:35:31;100683.97;;;34.44;31.12
55077;BME280;40971;44.702;11.030;2022-08-21T12:40:43;100738.44;;;34.83;29.88
55077;BME280;40971;44.702;11.030;2022-08-21T12:43:33;100744.38;;;34.68;30.35
55077;BME280;40971;44.702;11.030;2022-08-21T12:46:00;100738.06;;;34.91;29.67
55077;BME280;40971;44.702;11.030;2022-08-21T12:48:35;100730.78;;;35.08;29.82
55077;BME280;40971;44.702;11.030;2022-08-21T12:51:14;100737.63;;;34.19;29.22
55077;BME280;40971;44.702;11.030;2022-08-21T12:53:55;100662.72;;;33.77;31.06
55077;BME280;40971;44.702;11.030;2022-08-21T12:56:31;100721.56;;;34.81;31.68
55077;BME280;40971;44.702;11.030;2022-08-21T12:59:03;100714.91;;;33.96;30.36
55077;BME280;40971;44.702;11.030;2022-08-21T13:01:35;100725.72;;;34.72;29.41
55077;BME280;40971;44.702;11.030;2022-08-21T13:04:09;100724.44;;;35.03;30.53
55077;BME280;40971;44.702;11.030;2022-08-21T13:06:54;100715.53;;;35.36;29.60
55077;BME280;40971;44.702;11.030;2022-08-21T13:09:26;100697.84;;;34.88;29.08
55077;BME280;40971;44.702;11.030;2022-08-21T13:11:53;100684.09;;;34.78;29.36
55077;BME280;40971;44.702;11.030;2022-08-21T13:14:35;100704.19;;;35.39;29.31
55077;BME280;40971;44.702;11.030;2022-08-21T13:17:04;100696.19;;;35.15;28.92
55077;BME280;40971;44.702;11.030;2022-08-21T13:19:31;100700.03;;;35.19;28.57
55077;BME280;40971;44.702;11.030;2022-08-21T13:21:57;100700.25;;;35.01;29.19
55077;BME280;40971;44.702;11.030;2022-08-21T13:24:28;100700.72;;;35.43;29.12
55077;BME280;40971;44.702;11.030;2022-08-21T13:26:55;100631.25;;;35.31;28.51
55077;BME280;40971;44.702;11.030;2022-08-21T13:29:26;100679.91;;;35.66;28.40
55077;BME280;40971;44.702;11.030;2022-08-21T13:31:58;100691.56;;;36.43;28.08
55077;BME280;40971;44.702;11.030;2022-08-21T13:34:30;100685.28;;;36.21;27.65
55077;BME280;40971;44.702;11.030;2022-08-21T13:36:59;100623.13;;;35.31;29.52
55077;BME280;40971;44.702;11.030;2022-08-21T13:39:25;100575.56;;;34.78;29.42
55077;BME280;40971;44.702;11.030;2022-08-21T13:41:54;100674.84;;;35.74;28.55
55077;BME280;40971;44.702;11.030;2022-08-21T13:47:07;100659.91;;;35.94;29.22
55077;BME280;40971;44.702;11.030;2022-08-21T13:49:37;100644.59;;;35.49;28.95
55077;BME280;40971;44.702;11.030;2022-08-21T13:52:15;100642.72;;;35.88;29.03
55077;BME280;40971;44.702;11.030;2022-08-21T13:54:42;100596.63;;;35.38;28.37
55077;BME280;40971;44.702;11.030;2022-08-21T13:57:18;100647.03;;;35.67;29.27
55077;BME280;40971;44.702;11.030;2022-08-21T13:59:44;100663.69;;;35.54;29.08
55077;BME280;40971;44.702;11.030;2022-08-21T14:02:22;100609.28;;;35.32;28.58
55077;BME280;40971;44.702;11.030;2022-08-21T14:04:56;100657.09;;;34.31;30.18